Current Conditions

Updated: 22-Sep-2018 6:13 PM  
Summary / Temperature Wind Rain






Feels like: 88°F

1-hour difference
4.5°F 4.5°F colder than last hour.

24-hour difference
0.7°F0.7°F warmer than yesterday at this time.

  Today Yesterday
High: 95.2°F
3:39 PM
95.5°F
3:14 PM
Low: 57.0°F
6:10 AM
57.8°F
5:00 AM
Wind from NW NW
0.1
Gust:  0.0 mph
0 Beaufort - Calm

Today: 6.0 - 2:44 PM
Month: 9.2 mph - Sep 1
Rain Today: 0.00 in
Current Rate (/hr): 0.000 in
Max Rate (/hr):
Rain Yesterday: 0.00 in
Storm Rain: 0.00 in
This Month: 0.00 in
Season Total: 6.40 in
Last Rain Event: 158 days ago
Humidity / Barometer Sun / Moon
Humidity: 29 Increased 5.0% in the last hour.
Dew Point: 53.6°F Increased 1.3°F in the last hour.
Barometer: 29.775 inHg  
Baro Trend: Steady
Sunrise: 6:45 AM
Sunset: 6:53 PM
Moonrise: 6:05 PM
Moonset: 5:16 AM
Sky Conditions UV Index
Summary: Clear
Visibility: 10 miles
Clouds: None
KVIS - 5:56 PM PDT
Current: 0.0  None 
Saturday: 7.0  High 
Sunday: 7.2  High 
Air Quality Fire Danger
 Moderate 
Ozone 75 ppb
PM 2.5 8 μg/m3
6:10 PM PDT
Current: 66  Moderate 

Local Alerts Local Forecast
Local NWS Alerts
Tonight

Clear

Low 58
Sun

Sunny

High 92
Sun night

Clear

Low 55
Mon

Sunny

High 90
Mon night

Clear

Low 57
Tue

Sunny

High 93
Tue night

Clear

Low 59

Local Radar Local Satellite Neighborhood Cam Sky Cam
Local Radar Local Satellite Neighborhood Cam Sky Cam


Nearby Personal Stations

Weather Underground PWS KCAEXETE7     Weather Underground PWS KCAEXETE6     Weather Underground PWS KCAEXETE11

Nearby Airport Stations

KVIS - Visalia, California, USA
Distance from station: W 14mi, 23km
Updated: Sat, 22-Sep-2018 5:56pm PDT
Clear
Clear
 Wind from N
Wind: N 8 mph , 13 km/h
Temperature: 93°F , 34°C
Dew Point: 48°F , 9°C
Humidity: 21%
Barometer: 29.82 inHg , 1009.8 hPa
Clouds: Clear
Visibility: 10 miles , 16 km
2018/09/23 00:56 KVIS 230056Z AUTO 36007KT 10SM CLR 34/09 A2982 RMK AO2 SLP101 T03440094
KPTV - Porterville, California, USA
Distance from station: SSE 19mi, 31km
Updated: Sat, 22-Sep-2018 5:56pm PDT

 Wind from NNW
Wind: NNW 8 mph , 13 km/h
Temperature: 93°F , 34°C
Dew Point: 52°F , 11°C
Humidity: 24%
Barometer: 29.83 inHg , 1010.2 hPa
Visibility: 10 miles , 16 km
2018/09/23 00:56 KPTV 230056Z AUTO 33007KT 10SM 34/11 A2983 RMK AO2 SLP105 T03440111 $

Metar display script from Saratoga-Weather.org



Visitor Map